Time;durP1;ratioP1;P1;durP2;ratioP2;P2;SDS_P1;SDS_P2;PMS_P1;PMS_P2;Temp;Humidity;BMP_temperature;BMP_pressure;BME280_temperature;BME280_humidity;BME280_pressure;Samples;Min_cycle;Max_cycle;Signal;HPM_P1;HPM_P2
2023/08/01 00:02:22;;;;;;;;;;;;;;;6.11;100.00;98416.22;5021718;28;20325;-87
2023/08/01 00:04:47;;;;;;;;;;;;;;;5.98;100.00;98411.53;5021596;28;19917;-87
2023/08/01 00:07:13;;;;;;;;;;;;;;;6.01;100.00;98407.91;5023622;28;19928;-87
2023/08/01 00:09:38;;;;;;;;;;;;;;;5.90;100.00;98376.81;5020713;28;19928;-87
2023/08/01 00:12:03;;;;;;;;;;;;;;;5.98;100.00;98385.25;5021323;28;19952;-87
2023/08/01 07:55:59;;;;;;;;;;;;;;;5.88;100.00;98376.03;5365870;23;19940;-86
2023/08/01 07:58:24;;;;;;;;;;;;;;;5.92;100.00;98377.59;5046340;28;20272;-85
2023/08/01 08:00:49;;;;;;;;;;;;;;;5.89;100.00;98380.38;5030116;28;19924;-85
2023/08/01 08:03:15;;;;;;;;;;;;;;;5.99;100.00;98384.31;5030400;28;19925;-89
2023/08/01 08:05:40;;;;;;;;;;;;;;;5.93;100.00;98381.91;5029275;28;19929;-87
2023/08/01 08:08:06;;;;;;;;;;;;;;;5.96;100.00;98388.81;5027806;28;19964;-87
2023/08/01 08:10:31;;;;;;;;;;;;;;;5.93;100.00;98389.81;5025901;28;20364;-85
2023/08/01 08:12:56;;;;;;;;;;;;;;;5.80;100.00;98396.56;5028740;28;19921;-84
2023/08/01 08:15:23;;;;;;;;;;;;;;;18.58;100.00;98392.63;5026103;28;20371;-82
2023/08/01 08:17:49;;;;;;;;;;;;;;;11.05;100.00;98371.63;5027479;28;19917;-84
2023/08/01 08:20:14;;;;;;;;;;;;;;;8.92;100.00;98397.25;5031604;28;19929;-85
2023/08/01 08:22:39;;;;;;;;;;;;;;;8.68;100.00;98410.06;5031488;28;19917;-84
2023/08/01 08:25:04;;;;;;;;;;;;;;;8.58;100.00;98415.00;5025071;28;19925;-83
2023/08/01 08:27:30;;;;;;;;;;;;;;;8.70;100.00;98424.03;5030314;28;19960;-83
2023/08/01 08:29:55;;;;;;;;;;;;;;;7.95;100.00;98423.75;5030026;28;19986;-84
2023/08/01 08:32:20;;;;;;;;;;;;;;;20.53;100.00;98416.78;5041917;28;19936;-82
2023/08/01 08:34:45;;;;;;;;;;;;;;;23.29;100.00;98340.19;5026134;28;19932;-81
2023/08/01 08:37:11;;;;;;;;;;;;;;;16.33;100.00;98366.19;5018682;28;19928;-83
2023/08/01 08:39:36;;;;;;;;;;;;;;;11.24;100.00;98404.84;5043416;28;19931;-86
2023/08/01 08:42:01;;;;;;;;;;;;;;;9.71;100.00;98409.28;5028367;28;19933;-84
2023/08/01 08:44:30;;;;;;;;;;;;;;;9.38;100.00;98422.75;5029290;28;19936;-85
2023/08/01 08:46:59;;;;;;;;;;;;;;;9.38;100.00;98417.47;5024126;28;20294;-85
2023/08/01 08:49:26;;;;;;;;;;;;;;;9.25;100.00;98426.13;5037549;28;19925;-83
2023/08/01 08:51:52;;;;;;;;;;;;;;;8.61;100.00;98420.13;5030371;28;19917;-86
2023/08/01 08:54:17;;;;;;;;;;;;;;;7.95;100.00;98421.09;5028820;28;20040;-83
2023/08/01 08:56:43;;;;;;;;;;;;;;;7.74;100.00;98413.41;5020058;28;19921;-87
2023/08/01 08:59:10;;;;;;;;;;;;;;;7.55;100.00;98415.31;5026188;28;19921;-84
2023/08/01 09:01:35;;;;;;;;;;;;;;;7.41;100.00;98418.66;5030744;28;19956;-83
2023/08/01 09:04:01;;;;;;;;;;;;;;;7.26;100.00;98422.94;5024449;28;19968;-85
2023/08/01 09:06:34;;;;;;;;;;;;;;;7.16;100.00;98422.53;5026182;28;19956;-86
2023/08/01 09:09:04;;;;;;;;;;;;;;;7.14;100.00;98427.03;5020457;28;19965;-85
2023/08/01 09:11:37;;;;;;;;;;;;;;;7.05;100.00;98430.13;5027120;28;19928;-82
2023/08/01 09:14:02;;;;;;;;;;;;;;;7.07;100.00;98418.59;5029841;28;20015;-85
2023/08/01 09:16:28;;;;;;;;;;;;;;;7.08;100.00;98428.22;5031277;28;20012;-86
2023/08/01 09:18:54;;;;;;;;;;;;;;;7.00;100.00;98440.03;5031230;28;19957;-85
2023/08/01 09:21:19;;;;;;;;;;;;;;;7.06;100.00;98429.19;5029932;28;19921;-86
2023/08/01 09:23:45;;;;;;;;;;;;;;;7.06;100.00;98440.59;5033745;28;19978;-87
2023/08/01 09:26:17;;;;;;;;;;;;;;;6.98;100.00;98434.84;5029179;28;20296;-88
2023/08/01 09:28:42;;;;;;;;;;;;;;;6.82;100.00;98447.06;5032364;28;19928;-87
2023/08/01 09:31:07;;;;;;;;;;;;;;;6.93;100.00;98452.66;5031164;28;19925;-89
2023/08/01 09:33:40;;;;;;;;;;;;;;;6.85;100.00;98445.13;5033504;28;19917;-88
2023/08/01 09:36:05;;;;;;;;;;;;;;;6.85;100.00;98446.94;5033847;28;19964;-88
2023/08/01 09:38:33;;;;;;;;;;;;;;;6.65;100.00;98443.50;5033369;28;19983;-83
2023/08/01 09:40:59;;;;;;;;;;;;;;;6.65;100.00;98447.88;5021981;28;19949;-88
2023/08/01 09:43:24;;;;;;;;;;;;;;;6.67;100.00;98457.41;5028962;28;21671;-85
2023/08/01 09:45:51;;;;;;;;;;;;;;;6.68;100.00;98450.38;5031420;28;19932;-88
2023/08/01 09:48:27;;;;;;;;;;;;;;;6.61;100.00;98455.06;5031007;28;20384;-87
2023/08/01 09:50:53;;;;;;;;;;;;;;;6.54;100.00;98464.19;5029413;28;19929;-87
2023/08/01 09:53:18;;;;;;;;;;;;;;;6.53;100.00;98462.50;5033737;28;19917;-86
2023/08/01 09:55:45;;;;;;;;;;;;;;;6.57;100.00;98458.78;5030963;28;19975;-87
2023/08/01 09:58:13;;;;;;;;;;;;;;;6.61;100.00;98456.88;5031928;28;19927;-85
2023/08/01 10:00:38;;;;;;;;;;;;;;;6.52;100.00;98463.41;5029434;28;19920;-87
2023/08/01 10:03:04;;;;;;;;;;;;;;;6.48;100.00;98457.44;5030605;28;19944;-87
2023/08/01 10:05:41;;;;;;;;;;;;;;;6.52;100.00;98464.25;5030668;28;20012;-86
2023/08/01 10:08:07;;;;;;;;;;;;;;;6.52;100.00;98460.78;5032870;28;19967;-85
2023/08/01 10:10:32;;;;;;;;;;;;;;;6.49;100.00;98471.44;5029917;28;19924;-85
2023/08/01 10:13:00;;;;;;;;;;;;;;;6.41;100.00;98461.28;5031585;28;20429;-86
2023/08/01 10:15:26;;;;;;;;;;;;;;;6.43;100.00;98466.47;5029141;28;19940;-84
2023/08/01 10:17:51;;;;;;;;;;;;;;;6.39;100.00;98467.56;5029725;28;19924;-88
2023/08/01 10:20:18;;;;;;;;;;;;;;;6.38;100.00;98466.69;5031232;28;19925;-86
2023/08/01 10:22:44;;;;;;;;;;;;;;;6.47;100.00;98470.66;5032460;28;19925;-85
2023/08/01 10:25:10;;;;;;;;;;;;;;;6.39;100.00;98471.03;5029071;28;20048;-87
2023/08/01 10:27:36;;;;;;;;;;;;;;;6.40;100.00;98471.88;5029538;28;20356;-88
2023/08/01 10:30:02;;;;;;;;;;;;;;;6.43;100.00;98477.88;5032873;28;19928;-90
2023/08/01 10:32:32;;;;;;;;;;;;;;;6.45;100.00;98470.75;5031227;28;19921;-86
2023/08/01 10:34:57;;;;;;;;;;;;;;;6.33;100.00;98474.81;5030030;28;19940;-85
2023/08/01 10:37:22;;;;;;;;;;;;;;;6.35;100.00;98467.69;5031248;28;20368;-85
2023/08/01 10:39:55;;;;;;;;;;;;;;;6.38;100.00;98479.00;5031006;28;20023;-86
2023/08/01 10:42:21;;;;;;;;;;;;;;;6.30;100.00;98468.81;5030630;28;19924;-88
2023/08/01 10:44:46;;;;;;;;;;;;;;;6.30;100.00;98468.81;5028604;28;20656;-85
2023/08/01 10:47:11;;;;;;;;;;;;;;;6.34;100.00;98475.66;5030076;28;19927;-85
2023/08/01 10:49:52;;;;;;;;;;;;;;;6.24;100.00;98469.09;5025337;28;19925;-85
2023/08/01 10:52:17;;;;;;;;;;;;;;;6.24;100.00;98463.84;5029973;28;19960;-84
2023/08/01 10:54:43;;;;;;;;;;;;;;;6.26;100.00;98469.91;5027053;28;19975;-86
2023/08/01 10:57:08;;;;;;;;;;;;;;;6.26;100.00;98473.38;5029442;28;19921;-85
2023/08/01 10:59:34;;;;;;;;;;;;;;;6.21;100.00;98475.38;5029206;28;19929;-87
2023/08/01 11:02:00;;;;;;;;;;;;;;;6.23;100.00;98478.78;5032512;28;20146;-86
2023/08/01 11:04:25;;;;;;;;;;;;;;;6.20;100.00;98481.53;5030171;28;19970;-85
2023/08/01 11:06:52;;;;;;;;;;;;;;;6.21;100.00;98480.63;5030096;28;19987;-85
2023/08/01 11:09:21;;;;;;;;;;;;;;;6.26;100.00;98472.53;5031513;28;19923;-86
2023/08/01 11:11:53;;;;;;;;;;;;;;;6.22;100.00;98486.72;5031115;28;19925;-86
2023/08/01 11:14:22;;;;;;;;;;;;;;;6.10;100.00;98477.63;5038678;28;19921;-86
2023/08/01 11:16:48;;;;;;;;;;;;;;;6.20;100.00;98478.91;5028017;28;20003;-87
2023/08/01 11:19:18;;;;;;;;;;;;;;;6.19;100.00;98479.84;5029325;28;19925;-86
2023/08/01 11:21:43;;;;;;;;;;;;;;;18.12;100.00;98469.47;5027417;28;19925;-78
2023/08/01 11:24:09;;;;;;;;;;;;;;;8.61;100.00;98462.38;5029191;28;19932;-86
2023/08/01 11:26:34;;;;;;;;;;;;;;;7.15;100.00;98473.53;5025285;28;20414;-87
2023/08/01 11:29:03;;;;;;;;;;;;;;;6.82;100.00;98471.63;5027972;28;19921;-87
2023/08/01 11:31:28;;;;;;;;;;;;;;;6.67;100.00;98469.72;5029559;28;20331;-88
2023/08/01 11:33:57;;;;;;;;;;;;;;;6.63;100.00;98479.53;5030154;28;19974;-86
2023/08/01 11:36:24;;;;;;;;;;;;;;;6.50;100.00;98481.91;5037948;28;20543;-89
2023/08/01 11:38:49;;;;;;;;;;;;;;;6.41;100.00;98470.97;5025705;28;19925;-86
2023/08/01 11:41:15;;;;;;;;;;;;;;;6.48;100.00;98473.22;5022205;28;19939;-86
2023/08/01 11:43:40;;;;;;;;;;;;;;;6.37;100.00;98467.63;5022993;28;19921;-89
2023/08/01 11:48:52;;;;;;;;;;;;;;;6.40;100.00;98474.50;5021923;28;19925;-88
2023/08/01 11:51:18;;;;;;;;;;;;;;;6.27;100.00;98472.47;5034842;28;20004;-87
2023/08/01 11:53:43;;;;;;;;;;;;;;;6.22;100.00;98477.06;5022876;28;20316;-85
2023/08/01 11:56:08;;;;;;;;;;;;;;;6.25;100.00;98476.91;5043467;28;20018;-86
2023/08/01 11:58:35;;;;;;;;;;;;;;;6.32;100.00;98480.97;5022780;28;20016;-86
2023/08/01 12:01:10;;;;;;;;;;;;;;;6.30;100.00;98488.09;5021254;28;19976;-86
2023/08/01 12:03:48;;;;;;;;;;;;;;;6.18;100.00;98489.50;5023272;28;19929;-88
2023/08/01 12:06:14;;;;;;;;;;;;;;;6.20;100.00;98485.97;5044259;28;19922;-87
2023/08/01 12:08:40;;;;;;;;;;;;;;;6.18;100.00;98492.13;5022728;28;19926;-86
2023/08/01 12:11:06;;;;;;;;;;;;;;;6.22;100.00;98492.84;5022407;28;19921;-86
2023/08/01 12:13:31;;;;;;;;;;;;;;;6.18;100.00;98494.75;5033109;28;20475;-85
2023/08/01 12:15:56;;;;;;;;;;;;;;;6.14;100.00;98495.84;5021360;28;19944;-87
2023/08/01 12:18:22;;;;;;;;;;;;;;;6.12;100.00;98486.31;5021343;28;20020;-86
2023/08/01 12:20:48;;;;;;;;;;;;;;;6.12;100.00;98486.31;5025466;28;19928;-86
2023/08/01 12:23:13;;;;;;;;;;;;;;;6.10;100.00;98483.75;5036329;28;19921;-88
2023/08/01 12:25:38;;;;;;;;;;;;;;;6.06;100.00;98481.31;5043662;28;19924;-85
2023/08/01 12:28:04;;;;;;;;;;;;;;;6.08;100.00;98474.19;5021484;28;19967;-88
2023/08/01 12:30:29;;;;;;;;;;;;;;;6.05;100.00;98475.22;5023309;28;20356;-86
2023/08/01 12:32:54;;;;;;;;;;;;;;;6.04;100.00;98483.16;5045501;28;20357;-87
2023/08/01 12:35:19;;;;;;;;;;;;;;;6.02;100.00;98479.78;5044989;28;19931;-87
2023/08/01 12:37:44;;;;;;;;;;;;;;;5.96;100.00;98484.34;5036662;28;20012;-87
2023/08/01 12:40:10;;;;;;;;;;;;;;;6.00;100.00;98485.94;5022211;28;19930;-87
2023/08/01 12:42:35;;;;;;;;;;;;;;;6.00;100.00;98496.47;5022033;28;19924;-85
2023/08/01 12:45:00;;;;;;;;;;;;;;;6.10;100.00;98482.91;5021458;28;19920;-86
2023/08/01 12:47:26;;;;;;;;;;;;;;;6.09;100.00;98486.44;5021627;28;19953;-85
2023/08/01 12:49:51;;;;;;;;;;;;;;;6.08;100.00;98474.19;5044082;28;20300;-87
2023/08/01 12:52:24;;;;;;;;;;;;;;;5.94;100.00;98473.03;5036657;28;19957;-88
2023/08/01 12:54:49;;;;;;;;;;;;;;;6.00;100.00;98482.47;5022749;28;19969;-86
2023/08/01 12:57:14;;;;;;;;;;;;;;;5.96;100.00;98470.34;5022153;28;19925;-87
2023/08/01 12:59:40;;;;;;;;;;;;;;;6.04;100.00;98476.13;5024746;28;19929;-86
2023/08/01 13:02:08;;;;;;;;;;;;;;;5.93;100.00;98473.94;5025590;28;20280;-86
2023/08/01 13:04:33;;;;;;;;;;;;;;;6.02;100.00;98480.59;5039258;28;20398;-87
2023/08/01 13:06:59;;;;;;;;;;;;;;;6.02;100.00;98474.50;5031473;28;20000;-88
2023/08/01 13:09:24;;;;;;;;;;;;;;;5.98;100.00;98479.91;5044347;28;19983;-87
2023/08/01 13:11:49;;;;;;;;;;;;;;;6.00;100.00;98478.03;5024550;28;19929;-85
2023/08/01 13:14:14;;;;;;;;;;;;;;;5.97;100.00;98472.94;5035209;28;20004;-86
2023/08/01 13:16:40;;;;;;;;;;;;;;;5.92;100.00;98474.88;5032265;28;19925;-87
2023/08/01 13:19:07;;;;;;;;;;;;;;;5.95;100.00;98482.63;5024967;28;20296;-89
2023/08/01 13:21:33;;;;;;;;;;;;;;;5.96;100.00;98494.88;5024094;28;19925;-86
2023/08/01 13:23:59;;;;;;;;;;;;;;;5.99;100.00;98481.59;5037667;28;20403;-88
2023/08/01 13:26:25;;;;;;;;;;;;;;;5.98;100.00;98495.69;5036533;28;19925;-87
2023/08/01 13:28:50;;;;;;;;;;;;;;;5.96;100.00;98486.97;5024212;28;20312;-86
2023/08/01 13:31:15;;;;;;;;;;;;;;;5.98;100.00;98485.16;5039884;28;19928;-86
2023/08/01 13:33:40;;;;;;;;;;;;;;;6.03;100.00;98489.34;5041295;28;20496;-86
2023/08/01 13:36:06;;;;;;;;;;;;;;;5.94;100.00;98494.06;5016996;28;21971;-86
2023/08/01 13:38:32;;;;;;;;;;;;;;;5.92;100.00;98489.78;5040024;28;19959;-88
2023/08/01 13:41:01;;;;;;;;;;;;;;;5.96;100.00;98494.88;5023736;28;20008;-87
2023/08/01 13:43:26;;;;;;;;;;;;;;;5.87;100.00;98491.75;5041426;28;19928;-87
2023/08/01 13:45:52;;;;;;;;;;;;;;;5.97;100.00;98488.69;5025667;28;19921;-86
2023/08/01 13:48:18;;;;;;;;;;;;;;;5.89;100.00;98501.31;5020679;28;19966;-86
2023/08/01 13:50:43;;;;;;;;;;;;;;;5.97;100.00;98499.22;5024874;28;19917;-86
2023/08/01 13:53:10;;;;;;;;;;;;;;;5.94;100.00;98499.31;5025005;28;20007;-89
2023/08/01 13:55:35;;;;;;;;;;;;;;;5.97;100.00;98495.75;5023296;28;19920;-85
2023/08/01 13:58:00;;;;;;;;;;;;;;;6.00;100.00;98493.81;5029598;28;19922;-86
2023/08/01 14:00:26;;;;;;;;;;;;;;;5.98;100.00;98500.94;5023012;28;20012;-87
2023/08/01 14:02:51;;;;;;;;;;;;;;;6.06;100.00;98491.84;5048253;28;19925;-86
2023/08/01 14:05:17;;;;;;;;;;;;;;;6.00;100.00;98493.81;5023742;28;19921;-87
2023/08/01 14:07:42;;;;;;;;;;;;;;;5.96;100.00;98502.75;5031260;28;19917;-85
2023/08/01 14:10:07;;;;;;;;;;;;;;;6.17;100.00;98500.09;5039408;28;19913;-87
2023/08/01 14:12:33;;;;;;;;;;;;;;;6.06;100.00;98502.34;5039949;28;19941;-87
2023/08/01 14:14:58;;;;;;;;;;;;;;;6.00;100.00;98514.88;5045819;28;19956;-89
2023/08/01 14:17:23;;;;;;;;;;;;;;;6.01;100.00;98505.19;5026316;28;19929;-87
2023/08/01 14:19:50;;;;;;;;;;;;;;;6.05;100.00;98521.66;5039868;28;19928;-89
2023/08/01 14:22:15;;;;;;;;;;;;;;;5.96;100.00;98512.41;5030786;28;19913;-92
2023/08/01 14:24:42;;;;;;;;;;;;;;;6.02;100.00;98517.41;5043385;28;19933;-87
2023/08/01 14:27:07;;;;;;;;;;;;;;;5.98;100.00;98521.97;5045600;28;19943;-86
2023/08/01 14:29:32;;;;;;;;;;;;;;;6.00;100.00;98519.28;5023773;28;20444;-85
2023/08/01 14:31:58;;;;;;;;;;;;;;;6.03;100.00;98518.25;5024566;28;20384;-89
2023/08/01 14:34:23;;;;;;;;;;;;;;;5.91;100.00;98515.22;5038985;28;20557;-87
2023/08/01 14:36:48;;;;;;;;;;;;;;;5.91;100.00;98520.50;5032404;28;20764;-85
2023/08/01 14:39:13;;;;;;;;;;;;;;;5.94;100.00;98512.47;5022917;28;19921;-87
2023/08/01 14:41:39;;;;;;;;;;;;;;;5.90;100.00;98517.94;5022179;28;19940;-85
2023/08/01 14:44:04;;;;;;;;;;;;;;;5.99;100.00;98501.78;5022814;28;20023;-85
2023/08/01 14:46:29;;;;;;;;;;;;;;;5.98;100.00;98514.09;5024161;28;20302;-85
2023/08/01 14:48:54;;;;;;;;;;;;;;;5.94;100.00;98516.88;5020658;28;20004;-86
2023/08/01 14:51:20;;;;;;;;;;;;;;;5.91;100.00;98517.84;5023192;28;19948;-85
2023/08/01 14:53:45;;;;;;;;;;;;;;;5.95;100.00;98527.34;5046284;28;19928;-84
2023/08/01 14:56:11;;;;;;;;;;;;;;;5.88;100.00;98519.78;5028678;28;19932;-87
2023/08/01 14:58:39;;;;;;;;;;;;;;;5.93;100.00;98518.63;5022017;28;19929;-84
2023/08/01 15:01:05;;;;;;;;;;;;;;;5.88;100.00;98520.63;5023768;28;19925;-87
2023/08/01 15:03:30;;;;;;;;;;;;;;;5.97;100.00;98512.38;5023390;28;19945;-86
2023/08/01 15:05:55;;;;;;;;;;;;;;;5.97;100.00;98508.91;5024578;28;20380;-87
2023/08/01 15:08:20;;;;;;;;;;;;;;;6.05;100.00;98521.66;5043657;28;20076;-83
2023/08/01 15:10:46;;;;;;;;;;;;;;;6.14;100.00;98531.78;5044075;28;20012;-85
2023/08/01 15:13:11;;;;;;;;;;;;;;;6.00;100.00;98524.53;5023788;28;20801;-86
2023/08/01 15:15:37;;;;;;;;;;;;;;;5.91;100.00;98520.50;5027296;28;20380;-85
2023/08/01 15:18:02;;;;;;;;;;;;;;;5.97;100.00;98530.78;5041211;28;20487;-85
2023/08/01 15:20:27;;;;;;;;;;;;;;;6.02;100.00;98542.88;5021974;28;20368;-86
2023/08/01 15:22:52;;;;;;;;;;;;;;;6.00;100.00;98566.59;5023382;28;19960;-85
2023/08/01 15:25:18;;;;;;;;;;;;;;;5.87;100.00;98558.38;5041089;28;19953;-86
2023/08/01 15:27:43;;;;;;;;;;;;;;;5.90;100.00;98547.69;5021939;28;19933;-84
2023/08/01 15:30:08;;;;;;;;;;;;;;;5.94;100.00;98565.06;5026385;28;20337;-88
2023/08/01 15:32:34;;;;;;;;;;;;;;;5.80;100.00;98549.88;5044981;28;19929;-85
2023/08/01 15:34:59;;;;;;;;;;;;;;;5.83;100.00;98543.63;5039361;28;19921;-85
2023/08/01 15:37:25;;;;;;;;;;;;;;;5.73;100.00;98552.84;5043176;28;19974;-84
2023/08/01 15:39:50;;;;;;;;;;;;;;;5.78;100.00;98545.63;5020670;28;20414;-89
2023/08/01 15:42:15;;;;;;;;;;;;;;;5.84;100.00;98555.88;5023597;28;20284;-86
2023/08/01 15:44:40;;;;;;;;;;;;;;;5.97;100.00;98562.31;5021955;28;19918;-86
2023/08/01 15:47:05;;;;;;;;;;;;;;;5.96;100.00;98570.25;5036017;28;19921;-85
2023/08/01 15:49:31;;;;;;;;;;;;;;;5.93;100.00;98565.97;5022337;28;20129;-85
2023/08/01 15:51:56;;;;;;;;;;;;;;;5.90;100.00;98560.00;5045345;28;19917;-86
2023/08/01 15:54:21;;;;;;;;;;;;;;;5.92;100.00;98563.41;5036269;28;20388;-87
2023/08/01 15:56:47;;;;;;;;;;;;;;;5.97;100.00;98564.97;5045252;28;19921;-87
2023/08/01 15:59:12;;;;;;;;;;;;;;;5.99;100.00;98570.16;5037122;28;19918;-86
2023/08/01 16:01:37;;;;;;;;;;;;;;;5.98;100.00;98569.31;5042897;28;19933;-86
2023/08/01 16:04:03;;;;;;;;;;;;;;;5.91;100.00;98572.22;5022397;28;19921;-87
2023/08/01 16:06:28;;;;;;;;;;;;;;;6.00;100.00;98572.72;5043394;28;20037;-88
2023/08/01 16:08:53;;;;;;;;;;;;;;;5.94;100.00;98579.97;5024863;28;19921;-86
2023/08/01 16:11:18;;;;;;;;;;;;;;;5.95;100.00;98597.44;5021176;28;19921;-86
2023/08/01 16:13:44;;;;;;;;;;;;;;;5.95;100.00;98600.94;5021964;28;20331;-86
2023/08/01 16:16:09;;;;;;;;;;;;;;;5.95;100.00;98606.22;5020880;28;19925;-88
2023/08/01 16:18:34;;;;;;;;;;;;;;;5.92;100.00;98610.72;5044544;28;20017;-86
2023/08/01 16:20:59;;;;;;;;;;;;;;;5.86;100.00;98605.75;5022671;28;19933;-86
2023/08/01 16:23:25;;;;;;;;;;;;;;;5.91;100.00;98609.88;5039542;28;20288;-84
2023/08/01 16:25:50;;;;;;;;;;;;;;;5.85;100.00;98609.28;5022003;28;20291;-86
2023/08/01 16:28:15;;;;;;;;;;;;;;;5.90;100.00;98613.41;5023255;28;20243;-87
2023/08/01 16:30:40;;;;;;;;;;;;;;;5.85;100.00;98617.19;5022715;28;19980;-87
2023/08/01 16:33:06;;;;;;;;;;;;;;;5.81;100.00;98619.09;5022714;28;20350;-86
2023/08/01 16:35:32;;;;;;;;;;;;;;;5.81;100.00;98626.97;5023424;28;19929;-86
2023/08/01 16:37:58;;;;;;;;;;;;;;;5.80;100.00;98625.25;5041669;28;20015;-87
2023/08/01 16:40:23;;;;;;;;;;;;;;;5.85;100.00;98636.44;5025573;28;20365;-85
2023/08/01 16:42:51;;;;;;;;;;;;;;;5.90;100.00;98629.19;5025641;28;20338;-86
2023/08/01 16:45:16;;;;;;;;;;;;;;;5.88;100.00;98633.66;5025745;28;20020;-83
2023/08/01 16:47:42;;;;;;;;;;;;;;;5.88;100.00;98631.03;5026076;28;20012;-86
2023/08/01 16:50:14;;;;;;;;;;;;;;;5.77;100.00;98633.25;5027878;28;19921;-86
2023/08/01 16:52:39;;;;;;;;;;;;;;;5.73;100.00;98632.53;5030033;28;19970;-85
2023/08/01 16:55:05;;;;;;;;;;;;;;;5.80;100.00;98631.34;5048425;28;19917;-85
2023/08/01 16:57:30;;;;;;;;;;;;;;;5.79;100.00;98632.28;5047330;28;20052;-85
2023/08/01 16:59:55;;;;;;;;;;;;;;;5.77;100.00;98628.00;5049198;28;19917;-86
2023/08/01 17:02:21;;;;;;;;;;;;;;;5.77;100.00;98630.63;5025746;28;20008;-86
2023/08/01 17:04:46;;;;;;;;;;;;;;;5.70;100.00;98622.16;5024409;28;19921;-86
2023/08/01 17:07:11;;;;;;;;;;;;;;;5.79;100.00;98618.28;5047540;28;20349;-85
2023/08/01 17:09:36;;;;;;;;;;;;;;;5.78;100.00;98621.84;5037545;28;19983;-86
2023/08/01 17:12:02;;;;;;;;;;;;;;;5.80;100.00;98610.31;5019441;28;20022;-85
2023/08/01 17:14:27;;;;;;;;;;;;;;;5.81;100.00;98613.84;5023733;28;19928;-87
2023/08/01 17:16:53;;;;;;;;;;;;;;;5.85;100.00;98612.75;5021667;28;19925;-86
2023/08/01 17:19:18;;;;;;;;;;;;;;;5.82;100.00;98616.41;5026626;28;20372;-89
2023/08/01 17:21:43;;;;;;;;;;;;;;;5.75;100.00;98612.31;5024298;28;19918;-86
2023/08/01 17:24:10;;;;;;;;;;;;;;;5.78;100.00;98603.44;5025389;28;20287;-86
2023/08/01 17:26:36;;;;;;;;;;;;;;;5.79;100.00;98608.63;5023806;28;20069;-86
2023/08/01 17:29:02;;;;;;;;;;;;;;;5.78;100.00;98614.81;5023454;28;19922;-84
2023/08/01 17:31:27;;;;;;;;;;;;;;;5.78;100.00;98613.97;5025756;28;20330;-85
2023/08/01 17:33:53;;;;;;;;;;;;;;;5.77;100.00;98612.25;5037018;28;19964;-86
2023/08/01 17:36:19;;;;;;;;;;;;;;;5.84;100.00;98618.97;5025892;28;19996;-87
2023/08/01 17:38:44;;;;;;;;;;;;;;;5.74;100.00;98630.75;5026282;28;19957;-86
2023/08/01 17:41:23;;;;;;;;;;;;;;;5.74;100.00;98618.47;5037193;28;19925;-87
2023/08/01 17:43:48;;;;;;;;;;;;;;;5.72;100.00;98615.06;5025036;28;19978;-85
2023/08/01 17:46:14;;;;;;;;;;;;;;;5.68;100.00;98623.13;5037451;28;20854;-87
2023/08/01 17:48:39;;;;;;;;;;;;;;;5.73;100.00;98626.44;5025947;28;19927;-87
2023/08/01 17:51:05;;;;;;;;;;;;;;;5.75;100.00;98630.69;5039459;28;19925;-86
2023/08/01 17:53:30;;;;;;;;;;;;;;;5.75;100.00;98635.13;5022853;28;20008;-87
2023/08/01 17:55:55;;;;;;;;;;;;;;;5.76;100.00;98626.28;5021582;28;19917;-86
2023/08/01 17:58:21;;;;;;;;;;;;;;;5.75;100.00;98627.22;5025260;28;20008;-87
2023/08/01 18:00:46;;;;;;;;;;;;;;;5.77;100.00;98628.84;5024528;28;19928;-84
2023/08/01 18:03:11;;;;;;;;;;;;;;;5.77;100.00;98633.25;5038265;28;20384;-85
2023/08/01 18:05:37;;;;;;;;;;;;;;;5.79;100.00;98632.28;5025058;28;20390;-84
2023/08/01 18:08:02;;;;;;;;;;;;;;;5.76;100.00;98637.69;5034622;28;19930;-87
2023/08/01 18:10:30;;;;;;;;;;;;;;;5.79;100.00;98639.31;5044628;28;20350;-87
2023/08/01 18:12:56;;;;;;;;;;;;;;;5.77;100.00;98634.09;5046967;28;19991;-86
2023/08/01 18:15:21;;;;;;;;;;;;;;;5.72;100.00;98636.09;5024159;28;19922;-86
2023/08/01 18:17:46;;;;;;;;;;;;;;;5.78;100.00;98635.84;5046103;28;19926;-86
2023/08/01 18:20:12;;;;;;;;;;;;;;;5.78;100.00;98645.50;5048197;28;20012;-86
2023/08/01 18:22:37;;;;;;;;;;;;;;;5.81;100.00;98640.97;5047064;28;19921;-87
2023/08/01 18:25:03;;;;;;;;;;;;;;;5.75;100.00;98645.63;5021060;28;19999;-85
2023/08/01 18:27:28;;;;;;;;;;;;;;;5.81;100.00;98648.84;5023914;28;20401;-86
2023/08/01 18:29:53;;;;;;;;;;;;;;;5.85;100.00;98646.94;5024667;28;20332;-86
2023/08/01 18:32:18;;;;;;;;;;;;;;;5.77;100.00;98644.63;5024888;28;19943;-85
2023/08/01 18:34:44;;;;;;;;;;;;;;;5.79;100.00;98647.19;5024007;28;20348;-86
2023/08/01 18:37:09;;;;;;;;;;;;;;;5.80;100.00;98649.75;5023356;28;20387;-88
2023/08/01 18:39:34;;;;;;;;;;;;;;;5.85;100.00;98648.72;5022798;28;20832;-84
2023/08/01 18:42:00;;;;;;;;;;;;;;;5.86;100.00;98643.41;5021869;28;21011;-85
2023/08/01 18:44:28;;;;;;;;;;;;;;;5.83;100.00;98649.63;5023909;28;19917;-85
2023/08/01 18:46:53;;;;;;;;;;;;;;;5.85;100.00;98651.34;5023060;28;19964;-85
2023/08/01 18:49:19;;;;;;;;;;;;;;;5.80;100.00;98651.53;5046878;28;21829;-86
2023/08/01 18:51:44;;;;;;;;;;;;;;;5.80;100.00;98660.28;5039711;28;19917;-89
2023/08/01 18:54:09;;;;;;;;;;;;;;;5.76;100.00;98658.72;5046235;28;19921;-85
2023/08/01 18:56:35;;;;;;;;;;;;;;;5.84;100.00;98658.41;5036703;28;19921;-89
2023/08/01 18:59:00;;;;;;;;;;;;;;;5.86;100.00;98659.19;5033573;28;19928;-85
2023/08/01 19:01:25;;;;;;;;;;;;;;;5.84;100.00;98655.78;5047299;28;19917;-85
2023/08/01 19:03:52;;;;;;;;;;;;;;;5.80;100.00;98656.81;5022900;28;19917;-84
2023/08/01 19:06:17;;;;;;;;;;;;;;;5.86;100.00;98653.91;5037042;28;19921;-85
2023/08/01 19:08:43;;;;;;;;;;;;;;;5.81;100.00;98662.00;5047026;28;20276;-84
2023/08/01 19:11:08;;;;;;;;;;;;;;;5.89;100.00;98664.31;5022242;28;20000;-85
2023/08/01 19:13:33;;;;;;;;;;;;;;;5.78;100.00;98656.88;5033924;28;19957;-85
2023/08/01 19:16:02;;;;;;;;;;;;;;;5.90;100.00;98673.03;5045730;28;19971;-83
2023/08/01 19:18:28;;;;;;;;;;;;;;;5.92;100.00;98663.31;5038523;28;19924;-87
2023/08/01 19:20:53;;;;;;;;;;;;;;;5.85;100.00;98667.97;5023055;28;20036;-84
2023/08/01 19:23:19;;;;;;;;;;;;;;;5.90;100.00;98676.53;5045279;28;20017;-84
2023/08/01 19:25:45;;;;;;;;;;;;;;;5.90;100.00;98665.16;5021843;28;20276;-82
2023/08/01 19:28:11;;;;;;;;;;;;;;;5.88;100.00;98674.88;5021759;28;19925;-89
2023/08/01 19:30:37;;;;;;;;;;;;;;;5.87;100.00;98681.06;5019432;28;19943;-83
2023/08/01 19:33:04;;;;;;;;;;;;;;;5.89;100.00;98687.97;5023504;28;19967;-85
2023/08/01 19:35:29;;;;;;;;;;;;;;;5.88;100.00;98686.25;5046776;28;20376;-86
2023/08/01 19:37:55;;;;;;;;;;;;;;;5.88;100.00;98688.03;5046217;28;19913;-86
2023/08/01 19:40:20;;;;;;;;;;;;;;;5.87;100.00;98692.44;5043606;28;20024;-84
2023/08/01 19:42:45;;;;;;;;;;;;;;;5.85;100.00;98696.03;5038011;28;20380;-84
2023/08/01 19:45:10;;;;;;;;;;;;;;;5.83;100.00;98686.44;5022315;28;20013;-84
2023/08/01 19:47:36;;;;;;;;;;;;;;;5.87;100.00;98687.19;5045998;28;20365;-86
2023/08/01 19:50:05;;;;;;;;;;;;;;;5.79;100.00;98687.50;5045217;28;19941;-84
2023/08/01 19:52:30;;;;;;;;;;;;;;;5.83;100.00;98685.59;5037636;28;19928;-87
2023/08/01 19:54:56;;;;;;;;;;;;;;;5.75;100.00;98695.56;5021463;28;19913;-84
2023/08/01 19:57:21;;;;;;;;;;;;;;;6.76;100.00;98686.94;5045639;28;20340;-89
2023/08/01 19:59:48;;;;;;;;;;;;;;;6.17;100.00;98700.00;5021256;28;20416;-83
2023/08/01 20:02:13;;;;;;;;;;;;;;;5.91;100.00;98698.44;5045188;28;20016;-84
2023/08/01 20:04:38;;;;;;;;;;;;;;;5.82;100.00;98705.78;5022913;28;20012;-85
2023/08/01 20:07:03;;;;;;;;;;;;;;;5.81;100.00;98704.06;5021640;28;20391;-83
2023/08/01 20:09:29;;;;;;;;;;;;;;;5.80;100.00;98701.50;5020902;28;19917;-84
2023/08/01 20:11:54;;;;;;;;;;;;;;;5.70;100.00;98710.69;5022647;28;19921;-83
2023/08/01 20:14:20;;;;;;;;;;;;;;;5.74;100.00;98702.56;5046396;28;19917;-85
2023/08/01 20:16:45;;;;;;;;;;;;;;;5.73;100.00;98703.53;5023898;28;19921;-83
2023/08/01 20:19:10;;;;;;;;;;;;;;;5.74;100.00;98699.09;5020244;28;20446;-86
2023/08/01 20:21:35;;;;;;;;;;;;;;;5.73;100.00;98700.03;5022923;28;20435;-84
2023/08/01 20:24:01;;;;;;;;;;;;;;;5.77;100.00;98709.50;5029481;28;19940;-83